Airfield :
LOGIN :

Register | Disclaimer

   EN    FR    IT 

 










Legend :    VFR   Marginal VFR   IFR   Intensive IFR   Very Intensive IFR
Visi :
Ceiling :
>= 8 km
>= 3000ft
5 to 8 km
1000 to 3000 ft
1500m to 5 km
500 to 1000 ft
800 to 1500m
200 to 500 ft
< 800m
< 200 ft
Symbols :   Thunderstorms  Fog  Heavy snow  Heavy precipitations  Wind > 20 kt
SIGMETs :     Misc.  Thunderstorms  Icing  Turbulence  Mountain Waves  Volcanic Ashes






- Airport Elevation : 1273 ft
- IATA code : LJU


LJLJ - Ljubljana

CURRENT METAR :
  • 280700Z 25003KT 0600 R30/1200N FZFG VV002 M02/M02 Q1020 NOSIG

EXPIRED METARs :
  • 280630Z VRB01KT 0600 R30/1100D FZFG VV001 M02/M02 Q1020 NOSIG
  • 280600Z 28003KT 210V330 0800 R30/1200N FZFG VV001 M02/M02 Q1020 NOSIG
  • 280530Z VRB02KT 0800 R30/1400N FZFG VV001 M02/M02 Q1020 R30/29//95 NOSIG
  • 280500Z VRB01KT 0800 R30/1800D FZFG VV001 M02/M02 Q1020 R30/29//95 NOSIG
  • 280430Z VRB02KT 0800 R30/1500N FZFG VV001 M01/M02 Q1020 NOSIG

TAF TAF LJLJ
Valid from the 28 at 06:00 until the 29 at 06:00 UTC


280500Z 2806/2906 VRB01KT 0800 FZFG VV002
TEMPO 2806/2812 0400 VV001
PROB40 2812/2816 5000 BR OVC005



MET'MAP, your aeronautical weather chart ! - Copyright ORBIFLY December 2007 - Disclaimer

ORBIFLY MET'MAP TEAM :

Programming & Development : Alexandra Zaïnal
Concept & original design : Baudouin d'Aumeries
Assistance for programming : Marc-Olivier Méhu
Technical & hardware support : Manuel Goepfert

Contact : metmap@orbifly.com




SOURCES & CREDITS :

   NOAA